Time;durP1;ratioP1;P1;durP2;ratioP2;P2;SDS_P1;SDS_P2;PMS_P1;PMS_P2;Temp;Humidity;BMP_temperature;BMP_pressure;BME280_temperature;BME280_humidity;BME280_pressure;Samples;Min_cycle;Max_cycle;Signal;HPM_P1;HPM_P2
2022/02/25 00:00:27;;;;;;;2.05;1.40;;;3.20;99.90;;;;;;4978260;28;20344;-73
2022/02/25 00:02:53;;;;;;;1.70;1.60;;;3.20;99.90;;;;;;4991037;28;20026;-73
2022/02/25 00:05:18;;;;;;;2.35;1.70;;;3.20;99.90;;;;;;4976818;28;20025;-73
2022/02/25 00:07:44;;;;;;;1.75;1.60;;;3.20;99.90;;;;;;4977962;28;20038;-74
2022/02/25 00:10:10;;;;;;;3.35;1.92;;;3.20;99.90;;;;;;4971651;28;20077;-74
2022/02/25 00:12:37;;;;;;;2.13;1.67;;;3.20;99.90;;;;;;4987894;28;20036;-73
2022/02/25 00:15:03;;;;;;;4.90;1.90;;;3.20;99.90;;;;;;4990059;28;20037;-74
2022/02/25 00:17:28;;;;;;;2.30;1.83;;;3.20;99.90;;;;;;4976063;28;20030;-73
2022/02/25 00:19:54;;;;;;;3.05;1.67;;;3.20;99.90;;;;;;4989674;28;20089;-73
2022/02/25 00:22:19;;;;;;;4.20;1.90;;;3.20;99.90;;;;;;4982072;28;20125;-74
2022/02/25 00:24:45;;;;;;;2.47;1.63;;;3.20;99.90;;;;;;4990144;28;20751;-74
2022/02/25 00:27:11;;;;;;;3.30;1.50;;;3.20;99.90;;;;;;4973996;28;20042;-74
2022/02/25 00:29:37;;;;;;;2.03;1.80;;;3.20;99.90;;;;;;4972508;28;20509;-73
2022/02/25 00:32:03;;;;;;;2.80;1.80;;;3.10;99.90;;;;;;4977667;28;20041;-74
2022/02/25 00:34:28;;;;;;;2.30;1.70;;;3.20;99.90;;;;;;4972952;28;20030;-73
2022/02/25 00:36:54;;;;;;;2.15;1.80;;;3.20;99.90;;;;;;4976156;28;20367;-74
2022/02/25 00:39:19;;;;;;;1.90;1.80;;;3.20;99.90;;;;;;4986183;28;20034;-74
2022/02/25 00:41:45;;;;;;;3.60;1.85;;;3.20;99.90;;;;;;4981033;28;20022;-74
2022/02/25 00:44:10;;;;;;;4.47;1.63;;;3.20;99.90;;;;;;4976850;28;20022;-74
2022/02/25 00:46:36;;;;;;;1.80;1.55;;;3.20;99.90;;;;;;4971430;28;20058;-74
2022/02/25 00:49:02;;;;;;;2.30;1.58;;;3.20;99.90;;;;;;4978616;28;20033;-74
2022/02/25 00:51:27;;;;;;;2.70;1.40;;;3.20;99.90;;;;;;4986492;28;20026;-74
2022/02/25 00:53:53;;;;;;;4.20;1.60;;;3.20;99.90;;;;;;4976469;28;20424;-74
2022/02/25 00:56:21;;;;;;;3.88;1.70;;;3.20;99.90;;;;;;4971544;28;20030;-73
2022/02/25 00:58:47;;;;;;;4.13;1.60;;;3.20;99.90;;;;;;4977732;28;20039;-73
2022/02/25 01:01:13;;;;;;;1.40;1.30;;;3.20;99.90;;;;;;4972327;28;20132;-74
2022/02/25 01:03:38;;;;;;;3.22;1.40;;;3.20;99.90;;;;;;4989466;28;20395;-74
2022/02/25 01:06:05;;;;;;;3.47;1.42;;;3.20;99.90;;;;;;4973826;28;20026;-74
2022/02/25 01:08:30;;;;;;;2.95;1.77;;;3.30;99.90;;;;;;4979490;28;20120;-74
2022/02/25 01:10:56;;;;;;;2.05;1.13;;;3.20;99.90;;;;;;4986689;28;20487;-74
2022/02/25 01:13:21;;;;;;;5.07;1.50;;;3.30;99.90;;;;;;4974787;28;20030;-73
2022/02/25 01:15:47;;;;;;;0.85;0.80;;;3.10;99.90;;;;;;4978749;28;20022;-73
2022/02/25 01:18:13;;;;;;;1.17;1.08;;;3.00;99.90;;;;;;4985011;28;20055;-73
2022/02/25 01:20:38;;;;;;;0.80;0.80;;;2.90;99.90;;;;;;4973511;28;20023;-73
2022/02/25 01:23:04;;;;;;;3.13;1.40;;;2.70;99.90;;;;;;4970390;28;20054;-74
2022/02/25 01:25:30;;;;;;;2.70;1.10;;;2.70;99.90;;;;;;4980109;28;20125;-74
2022/02/25 01:27:55;;;;;;;2.45;1.50;;;2.60;99.90;;;;;;4969644;28;20022;-74
2022/02/25 01:30:21;;;;;;;1.55;1.40;;;2.60;99.90;;;;;;4989192;28;20425;-74
2022/02/25 01:32:47;;;;;;;4.22;1.60;;;2.50;99.90;;;;;;4980945;28;20795;-73
2022/02/25 01:35:12;;;;;;;2.30;1.50;;;2.50;99.90;;;;;;4972119;28;20022;-73
2022/02/25 01:37:38;;;;;;;3.05;1.60;;;2.50;99.90;;;;;;4988595;28;20046;-73
2022/02/25 01:40:04;;;;;;;2.40;1.38;;;2.50;99.90;;;;;;4976812;28;20034;-73
2022/02/25 01:42:30;;;;;;;1.67;1.20;;;2.50;99.90;;;;;;4971566;28;20038;-73
2022/02/25 01:44:55;;;;;;;3.33;1.48;;;2.50;99.90;;;;;;4974019;28;20030;-73
2022/02/25 01:47:21;;;;;;;2.60;1.40;;;2.50;99.90;;;;;;4976218;28;20148;-73
2022/02/25 01:49:47;;;;;;;2.75;1.67;;;2.50;99.90;;;;;;4985426;28;20027;-73
2022/02/25 01:52:16;;;;;;;2.83;1.60;;;2.50;99.90;;;;;;4972384;28;20026;-73
2022/02/25 01:54:43;;;;;;;3.75;1.30;;;2.50;99.90;;;;;;4989797;28;20034;-73
2022/02/25 01:57:14;;;;;;;3.03;1.63;;;2.50;99.90;;;;;;4970024;28;20783;-73
2022/02/25 01:59:41;;;;;;;3.83;1.27;;;2.50;99.90;;;;;;4981207;28;20059;-73
2022/02/25 02:02:08;;;;;;;2.63;1.10;;;2.50;99.90;;;;;;4971803;28;20605;-73
2022/02/25 02:04:35;;;;;;;3.15;1.27;;;2.50;99.90;;;;;;4986331;28;20065;-73
2022/02/25 02:07:01;;;;;;;4.65;1.30;;;2.50;99.90;;;;;;4991550;28;20081;-73
2022/02/25 02:09:27;;;;;;;3.30;1.13;;;2.50;99.90;;;;;;4975416;28;20430;-73
2022/02/25 02:11:54;;;;;;;2.08;1.35;;;2.50;99.90;;;;;;4973573;28;20071;-73
2022/02/25 02:14:22;;;;;;;1.50;1.40;;;2.60;99.90;;;;;;4992619;28;20030;-73
2022/02/25 02:16:50;;;;;;;3.40;1.27;;;2.60;99.90;;;;;;4989846;28;20038;-73
2022/02/25 02:19:16;;;;;;;2.70;1.20;;;2.60;99.90;;;;;;4977371;28;20375;-72
2022/02/25 02:21:47;;;;;;;4.60;1.70;;;2.50;99.90;;;;;;4973236;28;20407;-73
2022/02/25 02:24:14;;;;;;;3.35;1.50;;;2.50;99.90;;;;;;4976224;28;20026;-73
2022/02/25 02:26:41;;;;;;;1.73;1.30;;;2.50;99.90;;;;;;4996774;28;20510;-73
2022/02/25 02:29:07;;;;;;;3.28;1.40;;;2.50;99.90;;;;;;4974987;28;20129;-73
2022/02/25 02:31:33;;;;;;;1.88;1.40;;;2.50;99.90;;;;;;4990903;28;20038;-73
2022/02/25 02:33:59;;;;;;;2.97;1.20;;;2.50;99.90;;;;;;4979685;28;20494;-73
2022/02/25 02:36:25;;;;;;;3.50;1.30;;;2.50;99.90;;;;;;4984335;28;20117;-73
2022/02/25 02:38:51;;;;;;;2.05;1.35;;;2.50;99.90;;;;;;4978250;28;20098;-73
2022/02/25 02:41:17;;;;;;;2.70;1.50;;;2.40;99.90;;;;;;4987440;28;20487;-73
2022/02/25 02:43:43;;;;;;;2.33;1.50;;;2.40;99.90;;;;;;4991984;28;20022;-73
2022/02/25 02:46:09;;;;;;;5.10;1.40;;;2.30;99.90;;;;;;4974332;28;20395;-73
2022/02/25 02:48:35;;;;;;;2.80;1.23;;;2.30;99.90;;;;;;4974468;28;20042;-73
2022/02/25 02:51:01;;;;;;;2.60;1.40;;;2.30;99.90;;;;;;4975945;28;20034;-72
2022/02/25 02:53:27;;;;;;;2.50;1.10;;;2.30;99.90;;;;;;4991679;28;20165;-73
2022/02/25 02:55:53;;;;;;;6.03;1.30;;;2.30;99.90;;;;;;4989909;28;20113;-73
2022/02/25 02:58:19;;;;;;;2.45;1.50;;;2.30;99.90;;;;;;4989977;28;20198;-73
2022/02/25 03:00:47;;;;;;;5.15;1.33;;;2.30;99.90;;;;;;4992067;28;20033;-73
2022/02/25 03:03:13;;;;;;;4.60;1.48;;;2.20;99.90;;;;;;4972427;28;20046;-73
2022/02/25 03:05:40;;;;;;;3.17;1.25;;;2.20;99.90;;;;;;4973961;28;20030;-73
2022/02/25 03:08:06;;;;;;;1.95;0.93;;;2.20;99.90;;;;;;4989423;28;20046;-73
2022/02/25 03:10:33;;;;;;;3.05;1.20;;;2.10;99.90;;;;;;4979434;28;20037;-73
2022/02/25 03:12:59;;;;;;;4.13;1.25;;;2.10;99.90;;;;;;4969948;28;20054;-74
2022/02/25 03:15:25;;;;;;;5.20;1.50;;;2.10;99.90;;;;;;4984664;28;20050;-73
2022/02/25 03:17:50;;;;;;;4.30;1.20;;;2.10;99.90;;;;;;4971412;28;20041;-73
2022/02/25 03:20:16;;;;;;;3.13;1.00;;;2.10;99.90;;;;;;4990638;28;20072;-73
2022/02/25 03:22:42;;;;;;;4.47;1.83;;;2.00;99.90;;;;;;4969772;28;20030;-73
2022/02/25 03:25:08;;;;;;;2.10;1.30;;;2.00;99.90;;;;;;4990696;28;20040;-73
2022/02/25 03:27:34;;;;;;;3.70;1.15;;;2.00;99.90;;;;;;4978498;28;20031;-73
2022/02/25 03:30:00;;;;;;;2.83;1.30;;;2.00;99.90;;;;;;4973828;28;20513;-73
2022/02/25 03:32:26;;;;;;;3.40;1.10;;;2.00;99.90;;;;;;4992486;28;20034;-72
2022/02/25 03:34:52;;;;;;;4.43;1.15;;;1.90;99.90;;;;;;4970802;28;20747;-73
2022/02/25 03:37:19;;;;;;;5.68;1.52;;;1.90;99.90;;;;;;4972187;28;20062;-73
2022/02/25 03:39:45;;;;;;;3.25;1.30;;;1.90;99.90;;;;;;4973311;28;20085;-73
2022/02/25 03:42:10;;;;;;;2.35;1.10;;;1.90;99.90;;;;;;4990045;28;20022;-73
2022/02/25 03:44:37;;;;;;;6.55;1.52;;;1.90;99.90;;;;;;4972144;28;20022;-73
2022/02/25 03:47:03;;;;;;;2.10;1.00;;;1.80;99.90;;;;;;4985515;28;20027;-73
2022/02/25 03:49:29;;;;;;;2.15;0.90;;;1.80;99.90;;;;;;4978826;28;20026;-73
2022/02/25 03:51:55;;;;;;;3.63;1.10;;;1.80;99.90;;;;;;4987327;28;20030;-73
2022/02/25 03:54:21;;;;;;;2.45;1.33;;;1.80;99.90;;;;;;4982954;28;20026;-73
2022/02/25 03:56:46;;;;;;;6.05;1.40;;;1.70;99.90;;;;;;4978461;28;20042;-73
2022/02/25 03:59:12;;;;;;;4.45;1.00;;;1.70;99.90;;;;;;4985077;28;20393;-72
2022/02/25 04:01:38;;;;;;;2.55;1.10;;;1.70;99.90;;;;;;4976702;28;20045;-73
2022/02/25 04:04:03;;;;;;;3.08;1.17;;;1.70;99.90;;;;;;4965261;28;20140;-73
2022/02/25 04:06:30;;;;;;;4.00;1.08;;;1.70;99.90;;;;;;4969603;28;20035;-73
2022/02/25 04:08:56;;;;;;;6.72;1.30;;;1.60;99.90;;;;;;4984021;28;20422;-73
2022/02/25 04:11:22;;;;;;;2.95;1.10;;;1.60;99.90;;;;;;4974138;28;20122;-74
2022/02/25 04:13:48;;;;;;;6.57;1.40;;;1.60;99.90;;;;;;4987628;28;20382;-73
2022/02/25 04:16:14;;;;;;;7.25;1.23;;;1.60;99.90;;;;;;4971463;28;20101;-73
2022/02/25 04:18:41;;;;;;;3.08;1.02;;;1.60;99.90;;;;;;4989219;28;20045;-73
2022/02/25 04:21:06;;;;;;;5.30;1.48;;;1.60;99.90;;;;;;4990375;28;20022;-73
2022/02/25 04:23:33;;;;;;;6.90;1.20;;;1.60;99.90;;;;;;4972315;28;20037;-73
2022/02/25 04:25:59;;;;;;;6.32;1.50;;;1.60;99.90;;;;;;4969637;28;20031;-73
2022/02/25 04:28:24;;;;;;;2.95;1.20;;;1.70;99.90;;;;;;4978616;28;20060;-74
2022/02/25 04:30:50;;;;;;;6.50;1.40;;;1.70;99.90;;;;;;4989458;28;20100;-73
2022/02/25 04:33:17;;;;;;;3.53;1.10;;;1.70;99.90;;;;;;4968411;28;20034;-73
2022/02/25 04:35:42;;;;;;;6.55;1.38;;;1.70;99.90;;;;;;4976925;28;20045;-73
2022/02/25 04:38:08;;;;;;;6.28;1.10;;;1.70;99.90;;;;;;4970569;28;20517;-73
2022/02/25 04:40:35;;;;;;;5.63;1.20;;;1.70;99.90;;;;;;4967372;28;20168;-73
2022/02/25 04:43:01;;;;;;;6.72;1.50;;;1.70;99.90;;;;;;4984683;28;20021;-73
2022/02/25 04:45:27;;;;;;;12.05;1.20;;;1.60;99.90;;;;;;4970428;28;20030;-73
2022/02/25 04:47:52;;;;;;;4.25;1.15;;;1.70;99.90;;;;;;4982734;28;20037;-73
2022/02/25 04:50:18;;;;;;;7.70;1.20;;;1.70;99.90;;;;;;4972532;28;20026;-73
2022/02/25 04:52:44;;;;;;;1.52;1.00;;;1.60;99.90;;;;;;4987608;28;20022;-73
2022/02/25 04:55:11;;;;;;;2.95;1.20;;;1.60;99.90;;;;;;4983992;28;20033;-73
2022/02/25 04:57:36;;;;;;;3.90;1.20;;;1.60;99.90;;;;;;4972186;28;20505;-73
2022/02/25 05:00:06;;;;;;;6.90;1.35;;;1.60;99.90;;;;;;4987560;28;20031;-73
2022/02/25 05:02:32;;;;;;;8.63;1.40;;;1.60;99.90;;;;;;4973668;28;20026;-74
2022/02/25 05:04:58;;;;;;;5.80;1.33;;;1.60;99.90;;;;;;4973203;28;20030;-73
2022/02/25 05:07:25;;;;;;;5.82;1.45;;;1.60;99.90;;;;;;4988742;28;20390;-73
2022/02/25 05:09:50;;;;;;;6.07;1.40;;;1.60;99.90;;;;;;4972733;28;20030;-73
2022/02/25 05:12:16;;;;;;;5.65;1.33;;;1.60;99.90;;;;;;4988709;28;20033;-73
2022/02/25 05:20:16;;;;;;;6.45;1.45;;;1.60;99.90;;;;;;4988982;28;20447;-73
2022/02/25 05:22:43;;;;;;;6.15;1.63;;;1.60;99.90;;;;;;4982776;28;20105;-73
2022/02/25 05:25:09;;;;;;;4.95;1.42;;;1.50;99.90;;;;;;4988716;28;20161;-73
2022/02/25 05:27:35;;;;;;;8.23;2.28;;;1.60;99.90;;;;;;4973315;28;20064;-73
2022/02/25 05:30:02;;;;;;;6.43;1.90;;;1.50;99.90;;;;;;4979828;28;20478;-73
2022/02/25 05:32:27;;;;;;;11.82;1.65;;;1.50;99.90;;;;;;4980236;23;20110;-69
2022/02/25 05:34:53;;;;;;;7.75;1.50;;;1.60;99.90;;;;;;4969006;28;20031;-68
2022/02/25 05:37:19;;;;;;;5.25;1.60;;;1.60;99.90;;;;;;4971833;28;20138;-69
2022/02/25 05:39:44;;;;;;;6.05;1.30;;;1.60;99.90;;;;;;4983074;28;20031;-69
2022/02/25 05:42:10;;;;;;;6.80;1.63;;;1.60;99.90;;;;;;4972381;28;20035;-69
2022/02/25 05:44:35;;;;;;;4.40;1.83;;;1.60;99.90;;;;;;4971418;28;20491;-68
2022/02/25 05:47:01;;;;;;;7.50;1.42;;;1.50;99.90;;;;;;4965739;28;20034;-69
2022/02/25 05:49:27;;;;;;;8.43;1.38;;;1.60;99.90;;;;;;4970323;28;20058;-69
2022/02/25 05:51:53;;;;;;;4.45;1.70;;;1.50;99.90;;;;;;4970817;28;20069;-69
2022/02/25 05:54:18;;;;;;;6.32;1.42;;;1.60;99.90;;;;;;4973536;28;20062;-70
2022/02/25 05:56:44;;;;;;;9.25;1.55;;;1.60;99.90;;;;;;4968175;28;20074;-69
2022/02/25 05:59:09;;;;;;;9.63;1.50;;;1.60;99.90;;;;;;4969219;28;20031;-68
2022/02/25 06:01:35;;;;;;;8.00;1.63;;;1.60;99.90;;;;;;4970181;28;20094;-69
2022/02/25 06:04:01;;;;;;;5.82;1.27;;;1.60;99.90;;;;;;4967113;28;20031;-68
2022/02/25 06:06:27;;;;;;;10.50;1.70;;;1.60;99.90;;;;;;4974252;28;20034;-68
2022/02/25 06:08:52;;;;;;;4.75;1.48;;;1.60;99.90;;;;;;4966978;28;20089;-68
2022/02/25 06:11:18;;;;;;;7.03;1.67;;;1.60;99.90;;;;;;4968482;28;20062;-69
2022/02/25 06:13:44;;;;;;;3.17;1.30;;;1.60;99.90;;;;;;4968013;28;20058;-68
2022/02/25 06:16:09;;;;;;;7.05;1.55;;;1.60;99.90;;;;;;4972860;28;20066;-68
2022/02/25 06:18:38;;;;;;;11.15;1.58;;;1.60;99.90;;;;;;4970839;28;20069;-69
2022/02/25 06:21:05;;;;;;;6.22;1.38;;;1.50;99.90;;;;;;4966046;28;20034;-68
2022/02/25 06:23:30;;;;;;;5.40;1.58;;;1.60;99.90;;;;;;4963091;28;20038;-68
2022/02/25 06:25:56;;;;;;;4.65;1.45;;;1.50;99.90;;;;;;4966415;28;20391;-70
2022/02/25 06:28:22;;;;;;;8.05;1.60;;;1.60;99.90;;;;;;4971504;28;20031;-69
2022/02/25 06:30:48;;;;;;;4.75;1.33;;;1.60;99.90;;;;;;4969767;28;20371;-69
2022/02/25 06:33:13;;;;;;;7.68;1.63;;;1.60;99.90;;;;;;4972934;28;20027;-68
2022/02/25 06:35:39;;;;;;;5.00;1.77;;;1.60;99.90;;;;;;4972819;28;20122;-69
2022/02/25 06:38:04;;;;;;;5.18;2.20;;;1.60;99.90;;;;;;4971787;28;20054;-69
2022/02/25 06:40:30;;;;;;;11.00;2.90;;;1.80;99.90;;;;;;4973222;28;20038;-69
2022/02/25 06:42:56;;;;;;;8.05;2.00;;;2.00;99.90;;;;;;4972711;28;20022;-69
2022/02/25 06:45:21;;;;;;;7.05;2.22;;;2.10;99.90;;;;;;4963529;28;20027;-69
2022/02/25 06:47:48;;;;;;;5.15;2.10;;;2.20;99.90;;;;;;4971376;28;20130;-69
2022/02/25 06:50:16;;;;;;;7.75;1.80;;;2.40;99.90;;;;;;4973202;28;20026;-69
2022/02/25 06:52:41;;;;;;;7.30;2.10;;;2.70;99.90;;;;;;4973089;28;20081;-69
2022/02/25 06:55:08;;;;;;;9.15;1.95;;;2.90;99.90;;;;;;4972735;28;20479;-69
2022/02/25 06:57:33;;;;;;;7.07;1.60;;;3.10;99.90;;;;;;4971652;28;20162;-70
2022/02/25 06:59:59;;;;;;;5.30;1.77;;;3.20;99.90;;;;;;4971396;28;20487;-70
2022/02/25 07:02:24;;;;;;;8.90;1.92;;;3.30;99.90;;;;;;4970855;28;20030;-69
2022/02/25 07:04:50;;;;;;;6.90;2.00;;;3.70;99.90;;;;;;4971846;28;20027;-70
2022/02/25 07:07:15;;;;;;;7.97;2.10;;;3.90;99.90;;;;;;4967754;28;20034;-69
2022/02/25 07:09:41;;;;;;;5.93;2.10;;;4.10;99.90;;;;;;4972453;28;20034;-70
2022/02/25 07:12:07;;;;;;;6.57;1.77;;;4.10;99.90;;;;;;4971928;28;20031;-70
2022/02/25 07:14:33;;;;;;;7.07;1.58;;;4.00;99.90;;;;;;4967349;28;20845;-69
2022/02/25 07:17:00;;;;;;;8.43;1.70;;;4.20;99.90;;;;;;4951586;28;20126;-69
2022/02/25 07:19:25;;;;;;;9.57;2.97;;;4.50;99.90;;;;;;4972315;28;20050;-69
2022/02/25 07:21:51;;;;;;;8.27;1.50;;;5.00;99.90;;;;;;4968685;28;20063;-69
2022/02/25 07:24:17;;;;;;;8.05;2.22;;;5.40;99.90;;;;;;4972163;28;20023;-69
2022/02/25 07:26:43;;;;;;;6.85;1.50;;;5.40;99.90;;;;;;4972600;28;20068;-69
2022/02/25 07:29:10;;;;;;;6.75;1.65;;;5.40;99.90;;;;;;4971013;28;20023;-70
2022/02/25 07:31:38;;;;;;;4.18;1.33;;;5.60;99.90;;;;;;4971329;28;20034;-70
2022/02/25 07:34:05;;;;;;;7.80;1.63;;;5.90;99.90;;;;;;4969892;28;20457;-70
2022/02/25 07:36:31;;;;;;;7.85;1.70;;;5.50;99.90;;;;;;4972438;28;20161;-70
2022/02/25 07:38:57;;;;;;;10.95;1.77;;;6.10;99.90;;;;;;4971001;28;20023;-69
2022/02/25 07:41:22;;;;;;;7.35;1.80;;;5.90;99.90;;;;;;4971687;28;20038;-69
2022/02/25 07:43:48;;;;;;;6.72;1.90;;;6.30;99.90;;;;;;4966835;28;20046;-69
2022/02/25 07:46:14;;;;;;;5.88;1.38;;;6.50;99.90;;;;;;4960616;28;20027;-70
2022/02/25 07:48:40;;;;;;;5.35;1.98;;;6.80;99.90;;;;;;4969781;28;20648;-69
2022/02/25 07:51:06;;;;;;;8.90;2.00;;;6.90;99.90;;;;;;4966856;28;20428;-69
2022/02/25 07:53:33;;;;;;;8.85;1.88;;;6.80;99.90;;;;;;4953311;28;20070;-69
2022/02/25 07:55:59;;;;;;;7.32;1.67;;;6.50;99.90;;;;;;4970096;28;20419;-71
2022/02/25 07:58:24;;;;;;;4.75;2.22;;;6.30;99.90;;;;;;4963729;28;20034;-69
2022/02/25 08:00:50;;;;;;;5.88;1.65;;;6.50;99.90;;;;;;4971164;28;20027;-70
2022/02/25 08:03:16;;;;;;;3.45;1.30;;;7.00;99.90;;;;;;4975185;28;20059;-69
2022/02/25 08:05:41;;;;;;;4.90;2.05;;;6.80;99.90;;;;;;4971627;28;20027;-69
2022/02/25 08:08:07;;;;;;;8.63;2.13;;;6.80;99.90;;;;;;4970628;28;20476;-70
2022/02/25 08:10:34;;;;;;;8.80;2.25;;;6.50;99.90;;;;;;4971969;28;20062;-67
2022/02/25 08:13:01;;;;;;;6.57;1.85;;;6.80;99.90;;;;;;4971500;28;20122;-69
2022/02/25 08:15:27;;;;;;;6.45;1.60;;;7.00;99.90;;;;;;4971367;28;20066;-69
2022/02/25 08:17:53;;;;;;;6.10;1.95;;;7.10;99.90;;;;;;4970796;28;20062;-69
2022/02/25 08:20:20;;;;;;;8.75;2.38;;;7.10;99.90;;;;;;4971742;28;20487;-69
2022/02/25 08:22:45;;;;;;;7.45;1.77;;;7.10;99.90;;;;;;4971066;28;20050;-69
2022/02/25 08:25:11;;;;;;;6.80;2.00;;;7.10;99.90;;;;;;4971968;28;20018;-70
2022/02/25 08:27:37;;;;;;;5.95;1.30;;;7.30;99.90;;;;;;4966873;28;20101;-70
2022/02/25 08:30:05;;;;;;;8.23;1.83;;;7.30;99.90;;;;;;4969687;28;20026;-69
2022/02/25 08:32:31;;;;;;;8.57;1.67;;;7.10;99.90;;;;;;4971155;28;20484;-69
2022/02/25 08:34:57;;;;;;;5.55;1.30;;;6.90;99.90;;;;;;4979486;28;20058;-69
2022/02/25 08:37:23;;;;;;;5.40;1.40;;;6.60;99.90;;;;;;4970671;28;20106;-69
2022/02/25 08:39:48;;;;;;;9.38;2.03;;;6.20;99.90;;;;;;4969663;28;20109;-69
2022/02/25 08:42:14;;;;;;;8.27;1.65;;;6.10;99.90;;;;;;4971359;28;20039;-70
2022/02/25 08:44:42;;;;;;;6.82;1.52;;;6.00;99.90;;;;;;4970950;28;20094;-70
2022/02/25 08:47:08;;;;;;;10.50;1.60;;;6.00;99.90;;;;;;4964067;28;20106;-70
2022/02/25 08:49:34;;;;;;;10.35;2.22;;;6.00;99.90;;;;;;4971767;28;20555;-70
2022/02/25 08:52:00;;;;;;;7.95;1.92;;;6.10;99.90;;;;;;4969036;28;20022;-70
2022/02/25 08:54:25;;;;;;;5.57;1.50;;;6.10;99.90;;;;;;4953860;28;20039;-70
2022/02/25 08:56:51;;;;;;;8.68;1.35;;;6.30;99.90;;;;;;4970282;28;20094;-70
2022/02/25 08:59:16;;;;;;;4.72;1.20;;;6.30;99.90;;;;;;4968648;28;20460;-71
2022/02/25 09:01:42;;;;;;;7.13;1.48;;;6.30;99.90;;;;;;4971270;28;20027;-71
2022/02/25 09:04:08;;;;;;;5.43;1.40;;;6.20;99.90;;;;;;4965165;28;20026;-70
2022/02/25 09:06:36;;;;;;;7.55;1.70;;;6.10;99.90;;;;;;4970542;28;20101;-69
2022/02/25 09:09:03;;;;;;;7.45;1.77;;;6.10;99.90;;;;;;4969644;28;20023;-69
2022/02/25 09:11:28;;;;;;;6.68;1.77;;;6.20;99.90;;;;;;4972736;28;20045;-69
2022/02/25 09:13:54;;;;;;;8.43;1.90;;;6.20;99.90;;;;;;4975486;28;20034;-69
2022/02/25 09:16:19;;;;;;;5.85;1.90;;;6.30;99.90;;;;;;4973768;28;20106;-69
2022/02/25 09:18:45;;;;;;;6.13;1.40;;;6.20;99.90;;;;;;4970424;28;20023;-70
2022/02/25 09:21:11;;;;;;;7.22;1.60;;;6.10;99.90;;;;;;4966075;28;20022;-69
2022/02/25 09:23:37;;;;;;;4.50;1.50;;;6.10;99.90;;;;;;4973906;28;20031;-69
2022/02/25 09:26:03;;;;;;;6.82;1.55;;;6.20;99.90;;;;;;4974579;28;20056;-70
2022/02/25 09:28:28;;;;;;;8.80;2.00;;;6.10;99.90;;;;;;4970832;28;21517;-70
2022/02/25 09:30:54;;;;;;;10.85;1.80;;;6.20;99.90;;;;;;4972743;28;20027;-70
2022/02/25 09:33:20;;;;;;;12.68;2.25;;;6.20;99.90;;;;;;4973456;28;20026;-69
2022/02/25 09:35:47;;;;;;;9.60;2.15;;;6.30;99.90;;;;;;4974337;28;20117;-69
2022/02/25 09:38:12;;;;;;;7.05;2.08;;;6.30;99.90;;;;;;4973491;28;20019;-69
2022/02/25 09:40:39;;;;;;;5.15;1.65;;;6.20;99.90;;;;;;4967162;28;20398;-69
2022/02/25 09:43:05;;;;;;;10.68;2.25;;;6.00;99.90;;;;;;4974147;28;20805;-69
2022/02/25 09:45:32;;;;;;;7.07;1.98;;;6.00;99.90;;;;;;4975871;28;20160;-69
2022/02/25 09:47:58;;;;;;;5.90;1.60;;;5.90;99.90;;;;;;4973017;28;20062;-69
2022/02/25 09:50:26;;;;;;;5.75;1.40;;;5.90;99.90;;;;;;4972814;28;20027;-69
2022/02/25 09:52:52;;;;;;;5.30;1.70;;;5.90;99.90;;;;;;4976491;28;20023;-69
2022/02/25 09:55:21;;;;;;;6.22;1.80;;;6.00;99.90;;;;;;4968373;28;20422;-69
2022/02/25 09:57:47;;;;;;;10.88;2.40;;;6.20;99.90;;;;;;4964276;28;20046;-70
2022/02/25 10:00:13;;;;;;;4.22;1.33;;;6.30;99.90;;;;;;4973251;28;20027;-70
2022/02/25 10:02:41;;;;;;;4.70;1.42;;;6.40;99.90;;;;;;4973361;28;20026;-70
2022/02/25 10:05:13;;;;;;;5.32;1.35;;;6.50;99.90;;;;;;4972246;28;20677;-68
2022/02/25 10:07:39;;;;;;;3.85;1.27;;;6.60;99.90;;;;;;4962147;28;20031;-68
2022/02/25 10:10:06;;;;;;;6.05;1.42;;;6.50;99.90;;;;;;4969420;28;20395;-67
2022/02/25 10:12:32;;;;;;;6.85;1.65;;;6.50;99.90;;;;;;4970664;28;20054;-68
2022/02/25 10:14:59;;;;;;;7.65;1.65;;;6.50;99.90;;;;;;4974563;28;20041;-68
2022/02/25 10:17:26;;;;;;;6.93;1.33;;;6.50;99.90;;;;;;4971644;28;20502;-68
2022/02/25 10:20:05;;;;;;;8.50;1.50;;;6.50;99.90;;;;;;4973650;28;20030;-68
2022/02/25 10:22:32;;;;;;;5.30;1.25;;;6.60;99.90;;;;;;4971141;28;20031;-67
2022/02/25 10:25:02;;;;;;;4.65;1.02;;;6.60;99.90;;;;;;4972868;28;20022;-68
2022/02/25 10:27:40;;;;;;;5.15;1.42;;;6.70;99.90;;;;;;4971517;28;20054;-68
2022/02/25 10:30:14;;;;;;;10.50;1.33;;;6.70;99.90;;;;;;4977779;28;20034;-67
2022/02/25 10:32:51;;;;;;;6.85;1.52;;;6.70;99.90;;;;;;4975436;28;20034;-68
2022/02/25 10:35:30;;;;;;;7.20;1.17;;;6.70;99.80;;;;;;4972833;28;20030;-68
2022/02/25 10:37:55;;;;;;;6.40;1.20;;;6.80;99.90;;;;;;4971907;28;20039;-68
2022/02/25 10:40:21;;;;;;;7.57;2.10;;;6.80;99.90;;;;;;4972830;28;20147;-68
2022/02/25 10:42:47;;;;;;;8.25;1.42;;;6.80;99.90;;;;;;4971154;28;20437;-68
2022/02/25 10:45:24;;;;;;;4.05;1.10;;;6.90;99.20;;;;;;4972759;28;20052;-68
2022/02/25 10:47:51;;;;;;;7.40;1.40;;;6.80;99.20;;;;;;4965771;28;20491;-68
2022/02/25 10:50:17;;;;;;;4.75;1.13;;;6.80;99.10;;;;;;4972516;28;20031;-67
2022/02/25 10:52:45;;;;;;;7.45;1.17;;;6.80;98.90;;;;;;4972764;28;20118;-67
2022/02/25 10:55:22;;;;;;;4.55;1.33;;;6.80;98.90;;;;;;4967565;28;20034;-67
2022/02/25 10:57:51;;;;;;;6.72;1.60;;;6.80;99.00;;;;;;4970446;28;20399;-68
2022/02/25 11:00:19;;;;;;;6.03;1.30;;;6.90;99.30;;;;;;4973296;28;20041;-67
2022/02/25 11:02:49;;;;;;;5.20;1.10;;;6.90;98.70;;;;;;4980989;28;20022;-67
2022/02/25 11:05:19;;;;;;;8.70;1.80;;;7.00;98.80;;;;;;4992518;28;20025;-68
2022/02/25 11:07:50;;;;;;;5.82;1.30;;;6.90;98.10;;;;;;4971155;28;20034;-68
2022/02/25 11:10:19;;;;;;;8.88;1.10;;;6.90;98.10;;;;;;4970063;28;20111;-67
2022/02/25 11:12:48;;;;;;;4.30;1.05;;;6.80;98.00;;;;;;4971485;28;20138;-68
2022/02/25 11:15:25;;;;;;;8.68;1.10;;;6.80;98.10;;;;;;4961837;28;20027;-67
2022/02/25 11:17:52;;;;;;;4.15;1.20;;;6.80;98.20;;;;;;4971256;28;20395;-68
2022/02/25 11:20:22;;;;;;;7.68;1.10;;;6.90;98.20;;;;;;4972795;28;20035;-68
2022/02/25 11:22:57;;;;;;;5.95;1.40;;;6.90;98.00;;;;;;4973070;28;20431;-68
2022/02/25 11:25:23;;;;;;;4.40;1.10;;;6.80;97.80;;;;;;4954850;28;20384;-67
2022/02/25 11:27:49;;;;;;;4.22;1.20;;;6.80;97.70;;;;;;4954216;28;20391;-69
2022/02/25 11:33:08;;;;;;;6.05;1.23;;;6.80;97.60;;;;;;4983964;28;21532;-74
2022/02/25 11:35:57;;;;;;;4.25;1.08;;;6.90;97.70;;;;;;4980926;28;20018;-74
2022/02/25 11:38:30;;;;;;;6.07;0.98;;;7.00;97.20;;;;;;4995846;28;20030;-74
2022/02/25 11:41:01;;;;;;;7.38;1.27;;;7.30;97.20;;;;;;5011224;28;20073;-74
2022/02/25 11:43:36;;;;;;;4.25;1.48;;;7.50;97.10;;;;;;5010066;28;20485;-74
2022/02/25 11:46:03;;;;;;;6.60;1.35;;;7.60;96.50;;;;;;4986296;28;20030;-74
2022/02/25 11:48:46;;;;;;;6.03;1.27;;;7.60;96.20;;;;;;4990614;28;20533;-74
2022/02/25 11:51:39;;;;;;;7.00;1.08;;;7.50;96.10;;;;;;4970539;28;20035;-74
2022/02/25 11:54:18;;;;;;;;;;;7.40;95.70;;;;;;4972369;28;20031;-75
2022/02/25 11:56:45;;;;;;;6.43;1.40;;;7.30;96.20;;;;;;4990066;28;19914;-72
2022/02/25 11:59:10;;;;;;;6.95;1.60;;;7.20;95.60;;;;;;4981459;28;20024;-72
2022/02/25 12:02:05;;;;;;;7.88;1.60;;;7.20;95.10;;;;;;4983627;28;20398;-73
2022/02/25 12:04:32;;;;;;;5.97;1.65;;;7.40;95.40;;;;;;4989676;28;20026;-73
2022/02/25 12:07:01;;;;;;;4.65;1.10;;;7.70;95.70;;;;;;4986619;28;20053;-73
2022/02/25 12:09:40;;;;;;;3.65;0.90;;;7.90;95.90;;;;;;4991509;28;20470;-75
2022/02/25 12:12:23;;;;;;;6.50;1.40;;;8.00;95.30;;;;;;4991958;28;20475;-74
2022/02/25 12:15:18;;;;;;;8.85;1.17;;;8.00;94.50;;;;;;4992020;28;20030;-75
2022/02/25 12:17:51;;;;;;;6.85;1.20;;;7.90;94.00;;;;;;4989246;28;20036;-72
2022/02/25 12:20:24;;;;;;;5.90;1.00;;;7.70;94.00;;;;;;4989783;28;20018;-71
2022/02/25 12:23:02;;;;;;;5.07;1.10;;;7.50;93.60;;;;;;4990126;28;20526;-72
2022/02/25 12:25:40;;;;;;;8.70;1.30;;;7.40;93.30;;;;;;4997255;28;20038;-72
2022/02/25 12:28:06;;;;;;;6.25;1.10;;;7.30;93.30;;;;;;5006390;28;20084;-72
2022/02/25 12:30:45;;;;;;;7.28;1.10;;;7.10;93.10;;;;;;4992157;28;20034;-73
2022/02/25 12:33:33;;;;;;;6.93;1.45;;;7.00;93.30;;;;;;4991854;28;20026;-71
2022/02/25 12:36:05;;;;;;;4.43;0.90;;;7.00;93.60;;;;;;4993498;28;20493;-72
2022/02/25 12:38:36;;;;;;;6.28;1.60;;;7.10;93.80;;;;;;4990506;28;20371;-72
2022/02/25 12:41:15;;;;;;;8.45;1.70;;;7.30;94.00;;;;;;4992160;28;20168;-72
2022/02/25 12:44:03;;;;;;;4.38;1.23;;;7.30;93.90;;;;;;4991697;28;20061;-72
2022/02/25 12:46:35;;;;;;;6.55;1.20;;;7.40;93.80;;;;;;4980284;28;20069;-75
2022/02/25 12:49:02;;;;;;;7.72;1.65;;;7.40;94.00;;;;;;4989667;28;20045;-72
2022/02/25 12:51:28;;;;;;;5.75;1.48;;;7.50;93.60;;;;;;4992791;28;20038;-73
2022/02/25 12:54:02;;;;;;;4.25;1.35;;;7.40;93.40;;;;;;4992170;28;20073;-73
2022/02/25 12:56:51;;;;;;;7.75;1.35;;;7.40;93.20;;;;;;4975156;28;20118;-74
2022/02/25 12:59:42;;;;;;;5.15;1.13;;;7.20;92.20;;;;;;4972409;28;20027;-77
2022/02/25 13:02:19;;;;;;;6.18;1.42;;;7.00;92.40;;;;;;4992001;28;20034;-73
2022/02/25 13:04:53;;;;;;;9.90;1.13;;;6.90;92.50;;;;;;4989203;28;20061;-74
2022/02/25 13:07:21;;;;;;;4.03;1.35;;;6.80;92.60;;;;;;4990311;28;20035;-74